Middleton, New Hampshire
Current Conditions -  °F | °C
As of 12:51 PM on Friday 24 Oct 2014 (Local Time) from KDAW Reporting Station
Overcast Overcast  
Wind Chill: 52°   Ceiling: 2500
Heat Index: 52°   Visibility: 10mi
Dew Point: 47°   Wind: 9mph
Humidity: 83%   Direction: 330°NNW
Pressure: 29.69"   Gusts: NA
Location:  43.4575°N, 71.038°W
Report Text: KDAW 241651Z AUTO 33008KT 10SM BKN025 OVC030 11/08 A2969 RMK AO2 RAB1554E44 SLP051 P0001 T01110083
Loading
Personal Weather Stations






























Interactive Weather Map
Tropical Storm Tracking
New forecast layout! Learn more

10-Day Weather Forecast

Advertisements
Track Severe Weather on mobile